Time;durP1;ratioP1;P1;durP2;ratioP2;P2;SDS_P1;SDS_P2;PMS_P1;PMS_P2;Temp;Humidity;BMP_temperature;BMP_pressure;BME280_temperature;BME280_humidity;BME280_pressure;Samples;Min_cycle;Max_cycle;Signal;HPM_P1;HPM_P2
2022/12/09 00:00:11;;;;;;;38.63;19.02;;;-0.30;99.90;;;;;;5009456;28;20050;-66
2022/12/09 00:02:39;;;;;;;31.83;19.13;;;-0.30;99.90;;;;;;5009287;28;20116;-65
2022/12/09 00:05:07;;;;;;;35.00;19.50;;;-0.30;99.90;;;;;;5013880;28;20560;-65
2022/12/09 00:07:35;;;;;;;33.88;19.98;;;-0.40;99.90;;;;;;5010113;28;20133;-66
2022/12/09 00:10:04;;;;;;;30.52;18.02;;;-0.40;99.90;;;;;;5024154;28;20338;-65
2022/12/09 00:12:32;;;;;;;33.25;18.90;;;-0.50;99.90;;;;;;4999455;28;20050;-65
2022/12/09 00:14:59;;;;;;;35.92;20.20;;;-0.60;99.90;;;;;;5022784;28;20400;-65
2022/12/09 00:17:26;;;;;;;28.77;18.20;;;-0.60;99.90;;;;;;5023764;28;20147;-66
2022/12/09 00:19:54;;;;;;;35.13;19.58;;;-0.60;99.90;;;;;;5012828;28;20059;-66
2022/12/09 00:22:21;;;;;;;35.22;19.42;;;-0.70;99.90;;;;;;5008833;28;20457;-65
2022/12/09 00:24:48;;;;;;;34.40;19.38;;;-0.70;99.90;;;;;;5008826;28;20046;-70
2022/12/09 00:27:16;;;;;;;37.58;20.63;;;-0.70;99.90;;;;;;5018074;28;20526;-69
2022/12/09 00:29:43;;;;;;;33.38;19.40;;;-0.70;99.90;;;;;;5019880;28;20508;-71
2022/12/09 00:32:12;;;;;;;33.65;19.63;;;-0.70;99.90;;;;;;5027816;28;20514;-70
2022/12/09 00:34:41;;;;;;;33.92;19.23;;;-0.70;99.90;;;;;;5028609;28;20423;-70
2022/12/09 00:37:08;;;;;;;33.55;19.60;;;-0.70;99.90;;;;;;5014964;28;20136;-71
2022/12/09 00:39:36;;;;;;;39.75;20.95;;;-0.70;99.90;;;;;;5014228;28;20041;-71
2022/12/09 00:42:03;;;;;;;33.65;20.10;;;-0.70;99.90;;;;;;5028790;28;20041;-67
2022/12/09 00:44:31;;;;;;;35.45;20.23;;;-0.70;99.90;;;;;;5010777;28;20038;-68
2022/12/09 00:47:00;;;;;;;36.28;19.42;;;-0.80;99.90;;;;;;5019289;28;20537;-68
2022/12/09 00:49:27;;;;;;;36.13;20.25;;;-0.80;99.90;;;;;;5019254;28;20076;-68
2022/12/09 00:51:55;;;;;;;37.63;21.08;;;-0.80;99.90;;;;;;4999890;28;20043;-67
2022/12/09 00:54:22;;;;;;;36.30;19.83;;;-0.80;99.90;;;;;;5028312;28;20523;-68
2022/12/09 00:56:49;;;;;;;43.78;23.05;;;-0.90;99.90;;;;;;5021971;28;20133;-70
2022/12/09 00:59:17;;;;;;;38.50;22.63;;;-0.90;99.90;;;;;;5018913;28;20041;-69
2022/12/09 01:01:44;;;;;;;40.03;21.83;;;-0.90;99.90;;;;;;5019739;28;20053;-71
2022/12/09 01:04:12;;;;;;;43.10;21.77;;;-0.90;99.90;;;;;;5025051;28;20115;-69
2022/12/09 01:06:40;;;;;;;38.70;22.35;;;-1.00;99.90;;;;;;5025132;28;20107;-70
2022/12/09 01:09:08;;;;;;;39.75;21.65;;;-1.00;99.90;;;;;;5026572;28;20457;-65
2022/12/09 01:11:35;;;;;;;44.20;21.70;;;-1.00;99.90;;;;;;5033291;28;20041;-65
2022/12/09 01:14:03;;;;;;;43.88;22.90;;;-1.00;99.90;;;;;;5026971;28;20480;-65
2022/12/09 01:16:32;;;;;;;38.47;21.27;;;-1.10;99.90;;;;;;5015334;28;20045;-65
2022/12/09 01:19:02;;;;;;;40.15;20.92;;;-1.10;99.90;;;;;;5019753;28;20072;-65
2022/12/09 01:21:31;;;;;;;40.60;22.88;;;-1.20;99.90;;;;;;5018584;28;20522;-65
2022/12/09 01:23:59;;;;;;;40.75;22.00;;;-1.10;99.90;;;;;;5008603;28;20125;-66
2022/12/09 01:26:26;;;;;;;40.90;21.55;;;-1.10;99.90;;;;;;5027081;28;20112;-66
2022/12/09 01:28:55;;;;;;;38.20;21.17;;;-1.10;99.90;;;;;;5022449;28;20053;-67
2022/12/09 01:31:24;;;;;;;42.72;22.42;;;-1.10;99.90;;;;;;5025942;28;20052;-64
2022/12/09 01:33:54;;;;;;;41.75;21.88;;;-1.10;99.90;;;;;;4996111;28;20129;-66
2022/12/09 01:36:25;;;;;;;40.88;21.33;;;-1.10;99.90;;;;;;5031749;28;20045;-65
2022/12/09 01:38:53;;;;;;;42.40;20.95;;;-1.10;99.90;;;;;;5018126;28;20057;-65
2022/12/09 01:41:21;;;;;;;37.65;21.33;;;-1.10;99.90;;;;;;5029833;28;20080;-65
2022/12/09 01:44:07;;;;;;;36.67;19.58;;;-1.10;99.90;;;;;;5024367;28;20061;-65
2022/12/09 01:46:34;;;;;;;40.17;21.67;;;-1.10;99.90;;;;;;5029118;28;20068;-66
2022/12/09 01:49:02;;;;;;;41.42;20.73;;;-1.10;99.90;;;;;;5027721;28;20042;-65
2022/12/09 01:51:30;;;;;;;37.17;20.33;;;-1.00;99.90;;;;;;5015742;28;20133;-66
2022/12/09 01:53:58;;;;;;;36.50;20.05;;;-1.00;99.90;;;;;;5021352;28;20530;-66
2022/12/09 01:56:34;;;;;;;37.83;21.30;;;-1.00;99.90;;;;;;5012925;28;20037;-66
2022/12/09 01:59:09;;;;;;;46.95;22.92;;;-1.10;99.90;;;;;;5013998;28;20042;-66
2022/12/09 02:01:38;;;;;;;42.70;24.10;;;-1.00;99.90;;;;;;5022443;28;20241;-65
2022/12/09 02:04:06;;;;;;;42.92;23.02;;;-1.00;99.90;;;;;;5006413;28;20054;-66
2022/12/09 02:06:37;;;;;;;40.60;21.02;;;-1.00;99.90;;;;;;5029830;28;20344;-66
2022/12/09 02:09:07;;;;;;;;;;;-1.10;99.90;;;;;;5022888;28;20030;-65
2022/12/09 02:12:04;;;;;;;37.00;20.88;;;-1.10;99.90;;;;;;5028320;28;20475;-65
2022/12/09 02:14:52;;;;;;;32.88;19.20;;;-1.10;99.90;;;;;;5022869;28;20042;-65
2022/12/09 02:17:41;;;;;;;35.53;19.30;;;-1.10;99.90;;;;;;5028074;28;20038;-65
2022/12/09 02:20:25;;;;;;;36.25;20.30;;;-1.10;99.90;;;;;;5024714;28;20034;-65
2022/12/09 02:23:20;;;;;;;34.67;19.02;;;-1.10;99.90;;;;;;5015996;28;20049;-65
2022/12/09 02:26:03;;;;;;;33.67;19.20;;;-1.20;99.90;;;;;;5026404;28;20065;-65
2022/12/09 02:29:18;;;;;;;34.40;18.45;;;-1.20;99.90;;;;;;5029631;28;20042;-64
2022/12/09 02:32:33;;;;;;;40.25;20.10;;;-1.20;99.90;;;;;;5030245;28;20479;-65
2022/12/09 02:35:30;;;;;;;35.97;19.50;;;-1.20;99.90;;;;;;5020592;28;20044;-65
2022/12/09 02:38:12;;;;;;;38.28;20.90;;;-1.20;99.90;;;;;;5012838;28;20114;-66
2022/12/09 02:41:06;;;;;;;35.55;19.80;;;-1.10;99.90;;;;;;5018935;28;20037;-66
2022/12/09 02:43:41;;;;;;;35.60;20.27;;;-1.10;99.90;;;;;;5023440;28;20045;-66
2022/12/09 02:46:20;;;;;;;40.17;20.40;;;-1.10;99.90;;;;;;5013309;28;20481;-66
2022/12/09 02:48:53;;;;;;;35.22;19.77;;;-1.00;99.90;;;;;;5025842;28;20048;-67
2022/12/09 02:51:23;;;;;;;37.88;19.90;;;-1.00;99.90;;;;;;5021525;28;20072;-67
2022/12/09 02:53:55;;;;;;;33.93;19.67;;;-1.00;99.90;;;;;;5013468;28;20042;-65
2022/12/09 02:56:25;;;;;;;34.88;20.08;;;-1.10;99.90;;;;;;5027248;28;20045;-65
2022/12/09 02:58:53;;;;;;;36.08;19.20;;;-1.10;99.90;;;;;;5031549;28;20512;-67
2022/12/09 03:01:31;;;;;;;37.53;19.17;;;-1.20;99.90;;;;;;4993135;28;20463;-66
2022/12/09 03:04:00;;;;;;;35.03;19.52;;;-1.20;99.90;;;;;;5031671;28;20288;-66
2022/12/09 03:06:33;;;;;;;34.75;19.60;;;-1.20;99.90;;;;;;5026143;28;20041;-66
2022/12/09 03:09:13;;;;;;;35.80;19.88;;;-1.20;99.90;;;;;;5011971;28;20465;-66
2022/12/09 03:11:41;;;;;;;34.90;20.00;;;-1.20;99.90;;;;;;5017423;28;20473;-66
2022/12/09 03:14:27;;;;;;;33.25;18.60;;;-1.20;99.90;;;;;;5022898;28;20049;-67
2022/12/09 03:17:21;;;;;;;35.65;18.55;;;-1.20;99.90;;;;;;5029409;28;20044;-66
2022/12/09 03:19:54;;;;;;;33.95;19.13;;;-1.20;99.90;;;;;;5008863;28;20501;-66
2022/12/09 03:22:27;;;;;;;38.00;20.15;;;-1.20;99.90;;;;;;5026129;28;20119;-66
2022/12/09 03:25:23;;;;;;;35.25;19.42;;;-1.10;99.90;;;;;;5029616;28;20033;-65
2022/12/09 03:28:11;;;;;;;42.90;20.42;;;-1.00;99.90;;;;;;5029271;28;20053;-66
2022/12/09 03:30:42;;;;;;;39.10;21.08;;;-0.90;99.90;;;;;;5023795;28;20072;-66
2022/12/09 03:33:14;;;;;;;41.13;21.20;;;-0.80;99.90;;;;;;5028609;28;20559;-65
2022/12/09 03:35:44;;;;;;;40.25;20.80;;;-0.70;99.90;;;;;;5027197;28;20107;-66
2022/12/09 03:38:16;;;;;;;42.85;22.73;;;-0.70;99.90;;;;;;5010773;28;20121;-66
2022/12/09 03:40:48;;;;;;;40.95;21.35;;;-0.60;99.90;;;;;;5009752;28;20144;-66
2022/12/09 03:43:23;;;;;;;43.08;21.50;;;-0.50;99.90;;;;;;5010033;28;20036;-66
2022/12/09 03:45:53;;;;;;;39.65;21.05;;;-0.40;99.90;;;;;;5011697;28;20060;-68
2022/12/09 03:48:21;;;;;;;40.38;20.92;;;-0.40;99.90;;;;;;5021690;28;20100;-65
2022/12/09 03:51:13;;;;;;;39.50;20.98;;;-0.30;99.90;;;;;;5010123;28;20056;-65
2022/12/09 03:53:47;;;;;;;37.42;21.05;;;-0.20;99.90;;;;;;5020069;28;20053;-65
2022/12/09 03:56:21;;;;;;;34.38;19.75;;;-0.10;99.90;;;;;;5027979;28;20132;-66
2022/12/09 03:58:52;;;;;;;37.97;19.38;;;-0.10;99.90;;;;;;5029096;28;20395;-67
2022/12/09 04:01:23;;;;;;;32.72;18.88;;;-0.10;99.90;;;;;;5027930;28;20120;-66
2022/12/09 04:03:53;;;;;;;33.63;19.02;;;0.00;99.90;;;;;;5029306;28;20049;-67
2022/12/09 04:06:21;;;;;;;32.58;18.63;;;0.00;99.90;;;;;;5011798;28;20084;-67
2022/12/09 04:08:49;;;;;;;33.85;19.33;;;0.10;99.90;;;;;;5027917;28;20255;-69
2022/12/09 04:11:17;;;;;;;38.30;19.48;;;0.10;99.90;;;;;;5017340;28;20042;-65
2022/12/09 04:13:44;;;;;;;34.47;19.10;;;0.10;99.90;;;;;;5025584;28;20037;-66
2022/12/09 04:16:11;;;;;;;31.98;18.27;;;0.20;99.90;;;;;;5021317;28;20033;-66
2022/12/09 04:18:39;;;;;;;30.85;17.65;;;0.20;99.90;;;;;;5018893;28;20471;-68
2022/12/09 04:21:08;;;;;;;33.63;19.08;;;0.20;99.90;;;;;;5018048;28;20522;-65
2022/12/09 04:23:35;;;;;;;34.80;18.95;;;0.20;99.90;;;;;;5027832;28;20053;-66
2022/12/09 04:26:14;;;;;;;32.28;18.00;;;0.30;99.90;;;;;;5029254;28;20065;-68
2022/12/09 04:28:42;;;;;;;33.50;18.50;;;0.30;99.90;;;;;;5012968;28;20044;-67
2022/12/09 04:31:11;;;;;;;34.20;17.20;;;0.40;99.90;;;;;;5015809;28;20389;-66
2022/12/09 04:33:39;;;;;;;26.90;16.08;;;0.30;99.90;;;;;;5026249;28;20613;-66
2022/12/09 04:36:10;;;;;;;25.77;15.63;;;0.40;99.90;;;;;;5022155;28;20044;-65
2022/12/09 04:38:38;;;;;;;28.95;17.17;;;0.40;99.90;;;;;;5009005;28;20048;-66
2022/12/09 04:41:06;;;;;;;26.17;15.93;;;0.40;99.90;;;;;;5013300;28;20049;-66
2022/12/09 04:43:34;;;;;;;26.50;15.98;;;0.40;99.90;;;;;;5007927;28;20053;-70
2022/12/09 04:46:04;;;;;;;30.52;15.85;;;0.40;99.90;;;;;;5021818;28;20049;-70
2022/12/09 04:48:33;;;;;;;30.00;16.33;;;0.40;99.90;;;;;;5028378;28;20072;-71
2022/12/09 04:51:00;;;;;;;22.95;14.40;;;0.40;99.90;;;;;;5018023;28;20089;-71
2022/12/09 04:53:28;;;;;;;26.63;15.85;;;0.40;99.90;;;;;;5007007;28;20634;-71
2022/12/09 04:56:20;;;;;;;26.42;14.70;;;0.50;99.90;;;;;;5021832;28;20091;-70
2022/12/09 04:58:49;;;;;;;27.52;14.48;;;0.40;99.90;;;;;;5017081;28;20512;-70
2022/12/09 05:01:20;;;;;;;24.92;14.27;;;0.50;99.90;;;;;;5013881;28;20529;-70
2022/12/09 05:03:54;;;;;;;28.67;15.60;;;0.40;99.90;;;;;;5019471;28;20069;-70
2022/12/09 05:06:22;;;;;;;27.05;15.50;;;0.50;99.90;;;;;;5024142;28;20045;-70
2022/12/09 05:08:50;;;;;;;23.75;15.00;;;0.50;99.90;;;;;;5028360;28;20045;-70
2022/12/09 05:11:19;;;;;;;24.63;14.73;;;0.50;99.90;;;;;;5017459;28;20439;-72
2022/12/09 05:13:47;;;;;;;24.77;14.45;;;0.50;99.90;;;;;;5016651;28;20137;-71
2022/12/09 05:16:17;;;;;;;25.55;14.35;;;0.50;99.90;;;;;;5028994;28;20484;-71
2022/12/09 05:18:46;;;;;;;24.15;14.77;;;0.40;99.90;;;;;;5016057;28;20080;-71
2022/12/09 05:21:16;;;;;;;24.35;14.40;;;0.40;99.90;;;;;;5014308;28;20402;-70
2022/12/09 05:23:44;;;;;;;26.58;14.18;;;0.40;99.90;;;;;;5018842;28;20061;-71
2022/12/09 05:26:15;;;;;;;23.17;13.75;;;0.40;99.90;;;;;;5017754;28;20056;-73
2022/12/09 05:28:43;;;;;;;23.80;14.00;;;0.40;99.90;;;;;;5025113;28;20053;-71
2022/12/09 05:31:13;;;;;;;26.77;14.45;;;0.30;99.90;;;;;;5019477;28;20080;-71
2022/12/09 05:33:42;;;;;;;23.65;13.75;;;0.30;99.90;;;;;;5027428;28;20125;-71
2022/12/09 05:36:16;;;;;;;23.55;14.48;;;0.30;99.90;;;;;;5023534;28;20504;-70
2022/12/09 05:38:44;;;;;;;27.00;14.27;;;0.30;99.90;;;;;;5008703;28;20054;-71
2022/12/09 05:41:12;;;;;;;24.75;14.68;;;0.30;99.90;;;;;;5021287;28;20091;-71
2022/12/09 05:43:40;;;;;;;26.13;14.93;;;0.40;99.90;;;;;;5019411;28;20058;-69
2022/12/09 05:46:08;;;;;;;21.98;13.40;;;0.40;99.90;;;;;;5018296;28;20044;-69
2022/12/09 05:48:36;;;;;;;25.83;14.55;;;0.40;99.90;;;;;;5001435;28;20141;-69
2022/12/09 05:51:26;;;;;;;22.40;13.88;;;0.40;99.90;;;;;;5028787;28;20041;-69
2022/12/09 05:53:56;;;;;;;26.42;15.10;;;0.30;99.90;;;;;;5020552;28;20350;-69
2022/12/09 05:56:23;;;;;;;25.15;15.88;;;0.30;99.90;;;;;;5030781;28;20392;-69
2022/12/09 05:58:53;;;;;;;27.25;15.25;;;0.40;99.90;;;;;;5010610;28;20044;-69
2022/12/09 06:01:21;;;;;;;27.33;16.08;;;0.40;99.90;;;;;;5016655;28;20749;-69
2022/12/09 06:03:50;;;;;;;26.83;15.75;;;0.40;99.90;;;;;;5018689;28;20082;-72
2022/12/09 06:06:21;;;;;;;25.05;14.10;;;0.30;99.90;;;;;;5020490;28;20609;-72
2022/12/09 06:08:53;;;;;;;26.67;15.13;;;0.30;99.90;;;;;;5011562;28;20053;-73
2022/12/09 06:11:21;;;;;;;;;;;0.30;99.90;;;;;;5019968;28;20074;-71
2022/12/09 06:13:49;;;;;;;25.45;14.55;;;0.30;99.90;;;;;;5030321;28;19972;-72
2022/12/09 06:16:20;;;;;;;24.17;14.25;;;0.30;99.90;;;;;;5022781;28;20132;-73
2022/12/09 06:18:48;;;;;;;27.23;14.77;;;0.30;99.90;;;;;;5017587;28;20419;-71
2022/12/09 06:21:18;;;;;;;27.00;15.65;;;0.30;99.90;;;;;;5032153;28;20095;-72
2022/12/09 06:23:47;;;;;;;28.08;14.82;;;0.30;99.90;;;;;;5017617;28;20443;-72
2022/12/09 06:26:27;;;;;;;25.70;14.40;;;0.40;99.90;;;;;;5029213;28;20551;-72
2022/12/09 06:28:55;;;;;;;28.60;15.23;;;0.40;99.90;;;;;;5003544;28;20111;-71
2022/12/09 06:31:23;;;;;;;27.40;16.10;;;0.40;99.90;;;;;;5027616;28;20111;-73
2022/12/09 06:33:52;;;;;;;27.08;16.40;;;0.40;99.90;;;;;;5025551;28;20057;-73
2022/12/09 06:36:23;;;;;;;39.42;19.67;;;0.50;99.90;;;;;;5018436;28;20064;-71
2022/12/09 06:38:51;;;;;;;30.90;15.88;;;0.40;99.90;;;;;;5023067;28;20128;-72
2022/12/09 06:41:18;;;;;;;31.50;16.75;;;0.50;99.90;;;;;;5010355;28;20443;-71
2022/12/09 06:43:46;;;;;;;27.52;15.90;;;0.50;99.90;;;;;;5012300;28;20088;-71
2022/12/09 06:46:17;;;;;;;27.50;15.50;;;0.50;99.90;;;;;;5016974;28;20148;-72
2022/12/09 06:48:45;;;;;;;28.15;16.83;;;0.50;99.90;;;;;;5008779;28;20064;-71
2022/12/09 06:51:15;;;;;;;32.83;17.15;;;0.50;99.90;;;;;;5015378;28;20041;-71
2022/12/09 06:53:42;;;;;;;32.15;17.17;;;0.60;99.90;;;;;;5014742;28;20552;-72
2022/12/09 06:56:12;;;;;;;31.42;16.92;;;0.60;99.90;;;;;;5013293;28;20054;-71
2022/12/09 06:58:41;;;;;;;31.85;17.95;;;0.60;99.90;;;;;;5011767;28;20045;-72
2022/12/09 07:01:15;;;;;;;32.22;17.42;;;0.60;99.90;;;;;;5017397;28;20061;-71
2022/12/09 07:03:45;;;;;;;33.78;18.48;;;0.70;99.90;;;;;;5028527;28;20542;-71
2022/12/09 07:06:22;;;;;;;30.83;17.08;;;0.70;99.90;;;;;;5022511;28;20129;-71
2022/12/09 07:08:50;;;;;;;31.92;17.30;;;0.70;99.90;;;;;;5024468;28;20104;-71
2022/12/09 07:11:18;;;;;;;32.42;17.45;;;0.70;99.90;;;;;;5014654;28;20037;-71
2022/12/09 07:13:46;;;;;;;30.58;18.02;;;0.70;99.90;;;;;;5026893;28;20041;-72
2022/12/09 07:16:13;;;;;;;36.42;19.48;;;0.70;99.90;;;;;;5025017;28;20079;-71
2022/12/09 07:18:41;;;;;;;34.28;19.10;;;0.80;99.90;;;;;;5026663;28;20080;-70
2022/12/09 07:21:13;;;;;;;39.10;20.42;;;0.80;99.90;;;;;;5029746;28;20042;-71
2022/12/09 07:23:41;;;;;;;38.05;19.73;;;0.80;99.90;;;;;;5020864;28;20141;-70
2022/12/09 07:26:10;;;;;;;39.97;21.35;;;0.90;99.90;;;;;;5019648;28;20041;-71
2022/12/09 07:28:41;;;;;;;40.83;20.40;;;0.90;99.90;;;;;;5020980;28;20041;-71
2022/12/09 07:31:28;;;;;;;34.90;18.90;;;0.90;99.90;;;;;;5018298;28;20497;-71
2022/12/09 07:33:57;;;;;;;44.60;23.00;;;0.90;99.90;;;;;;5023746;28;20400;-72
2022/12/09 07:36:27;;;;;;;38.08;20.48;;;1.00;99.90;;;;;;5011315;28;20516;-72
2022/12/09 07:39:00;;;;;;;38.30;20.60;;;1.00;99.90;;;;;;5011395;28;20038;-72
2022/12/09 07:41:28;;;;;;;37.20;19.63;;;1.10;99.90;;;;;;5027757;28;20450;-72
2022/12/09 07:43:57;;;;;;;36.30;18.17;;;1.10;99.90;;;;;;5028823;28;20056;-74
2022/12/09 07:46:27;;;;;;;35.15;20.05;;;1.10;99.90;;;;;;5015453;28;20065;-71
2022/12/09 07:48:56;;;;;;;39.65;20.98;;;1.20;99.90;;;;;;5012795;28;20484;-71
2022/12/09 07:51:24;;;;;;;39.20;21.10;;;1.30;99.90;;;;;;5015615;28;20096;-71
2022/12/09 07:53:52;;;;;;;37.03;20.42;;;1.30;99.90;;;;;;5011782;28;20084;-71
2022/12/09 07:56:22;;;;;;;39.88;20.98;;;1.40;99.90;;;;;;4993713;28;20464;-70
2022/12/09 07:58:52;;;;;;;37.38;20.05;;;1.40;99.90;;;;;;5025091;28;20037;-71
2022/12/09 08:01:25;;;;;;;35.53;19.88;;;1.50;99.90;;;;;;5026265;28;20053;-72
2022/12/09 08:03:53;;;;;;;41.22;21.95;;;1.50;99.90;;;;;;5028511;28;20120;-71
2022/12/09 08:06:24;;;;;;;34.85;19.90;;;1.50;99.90;;;;;;5026703;28;20414;-72
2022/12/09 08:08:52;;;;;;;41.97;22.20;;;1.50;99.90;;;;;;5027351;28;20531;-71
2022/12/09 08:11:22;;;;;;;35.25;19.20;;;1.60;99.90;;;;;;5026917;28;20092;-71
2022/12/09 08:13:51;;;;;;;37.30;20.15;;;1.60;99.90;;;;;;5027029;28;20428;-72
2022/12/09 08:16:20;;;;;;;37.40;20.73;;;1.60;99.90;;;;;;5020434;28;20369;-71
2022/12/09 08:18:49;;;;;;;44.10;21.13;;;1.60;99.90;;;;;;5028323;28;20140;-72
2022/12/09 08:21:22;;;;;;;42.60;22.15;;;1.70;99.90;;;;;;5027371;28;20471;-72
2022/12/09 08:23:50;;;;;;;48.78;26.05;;;1.70;99.90;;;;;;5021221;28;20095;-72
2022/12/09 08:26:20;;;;;;;50.15;27.33;;;1.80;99.90;;;;;;5018594;28;20049;-71
2022/12/09 08:28:49;;;;;;;44.33;22.17;;;1.90;99.90;;;;;;5028119;28;20124;-71
2022/12/09 08:31:20;;;;;;;40.63;21.08;;;1.90;99.90;;;;;;5020408;28;20045;-71
2022/12/09 08:33:49;;;;;;;41.90;21.75;;;2.00;99.90;;;;;;5029880;28;20467;-71
2022/12/09 08:36:21;;;;;;;40.55;21.73;;;2.00;99.90;;;;;;5026554;28;20104;-72
2022/12/09 08:38:49;;;;;;;50.58;26.77;;;2.00;99.90;;;;;;5002721;28;20061;-71
2022/12/09 08:41:33;;;;;;;40.60;21.38;;;2.10;99.90;;;;;;5029655;28;20046;-71
2022/12/09 08:44:11;;;;;;;44.20;22.35;;;2.10;99.90;;;;;;5029032;28;20500;-72
2022/12/09 08:46:44;;;;;;;41.03;22.55;;;2.20;99.90;;;;;;5004898;28;20075;-70
2022/12/09 08:49:16;;;;;;;41.92;22.25;;;2.20;99.90;;;;;;5028366;28;20052;-72
2022/12/09 08:51:47;;;;;;;46.10;24.08;;;2.20;99.90;;;;;;5026501;28;20049;-70
2022/12/09 08:54:14;;;;;;;51.38;25.42;;;2.30;99.90;;;;;;5015769;28;20478;-72
2022/12/09 08:56:47;;;;;;;48.88;26.30;;;2.50;99.90;;;;;;5029198;28;20511;-72
2022/12/09 08:59:16;;;;;;;43.63;22.60;;;2.50;99.90;;;;;;5007049;28;20092;-72
2022/12/09 09:01:44;;;;;;;42.83;21.65;;;2.60;99.90;;;;;;5019707;28;20183;-74
2022/12/09 09:04:14;;;;;;;39.80;21.90;;;2.80;99.90;;;;;;5027970;28;20063;-72
2022/12/09 09:06:45;;;;;;;37.65;21.40;;;2.90;99.90;;;;;;5028425;28;20065;-72
2022/12/09 09:09:13;;;;;;;56.17;30.40;;;3.00;99.90;;;;;;5001219;28;20048;-72
2022/12/09 09:11:42;;;;;;;40.83;22.15;;;3.00;99.90;;;;;;5024724;28;20049;-72
2022/12/09 09:14:11;;;;;;;37.22;20.63;;;3.10;99.90;;;;;;5008099;28;20038;-72
2022/12/09 09:16:42;;;;;;;38.10;21.55;;;3.10;99.90;;;;;;5017367;28;20053;-72
2022/12/09 09:19:19;;;;;;;51.83;28.15;;;3.20;99.90;;;;;;5029102;28;20159;-72
2022/12/09 09:21:47;;;;;;;41.90;23.63;;;3.30;99.90;;;;;;5030101;28;20049;-72
2022/12/09 09:24:17;;;;;;;38.63;21.33;;;3.50;99.90;;;;;;5030531;28;20049;-72
2022/12/09 09:26:46;;;;;;;36.85;20.02;;;3.50;99.90;;;;;;5031372;28;20057;-72
2022/12/09 09:29:16;;;;;;;41.80;21.48;;;3.60;99.90;;;;;;5013803;28;20145;-72
2022/12/09 09:31:47;;;;;;;37.05;20.92;;;3.70;99.90;;;;;;5031439;28;20120;-68
2022/12/09 09:34:16;;;;;;;37.58;21.55;;;3.80;99.90;;;;;;5011006;28;20042;-67
2022/12/09 09:36:44;;;;;;;42.80;23.02;;;3.90;99.90;;;;;;5020820;28;20053;-68
2022/12/09 09:39:12;;;;;;;42.25;22.67;;;3.90;99.90;;;;;;5031865;28;20042;-67
2022/12/09 09:41:53;;;;;;;35.88;20.77;;;3.90;99.90;;;;;;5031661;28;20153;-68
2022/12/09 09:44:54;;;;;;;38.03;20.20;;;3.90;99.90;;;;;;5031644;28;20072;-72
2022/12/09 09:47:40;;;;;;;38.42;20.15;;;4.00;99.90;;;;;;5016146;28;20503;-71
2022/12/09 09:50:49;;;;;;;36.10;20.45;;;3.90;99.90;;;;;;5024478;28;20348;-71
2022/12/09 09:53:24;;;;;;;34.53;20.13;;;3.90;99.90;;;;;;5018513;28;20425;-71
2022/12/09 09:55:58;;;;;;;42.22;23.52;;;3.90;99.90;;;;;;5024358;28;20141;-70
2022/12/09 09:58:43;;;;;;;34.63;20.52;;;3.80;99.90;;;;;;5021990;28;20041;-71
2022/12/09 10:01:14;;;;;;;37.55;21.67;;;3.70;99.90;;;;;;5029558;28;20067;-71
2022/12/09 10:03:54;;;;;;;37.10;21.45;;;3.80;99.90;;;;;;5031315;28;20045;-71
2022/12/09 10:06:31;;;;;;;46.35;25.88;;;3.70;99.90;;;;;;5027144;28;20045;-71
2022/12/09 10:09:12;;;;;;;42.72;23.67;;;3.80;99.90;;;;;;5019385;28;20472;-71
2022/12/09 10:11:52;;;;;;;39.58;22.25;;;3.90;99.90;;;;;;5013948;28;20037;-72
2022/12/09 10:14:48;;;;;;;32.35;19.25;;;3.90;99.90;;;;;;5029562;28;20040;-71
2022/12/09 10:17:22;;;;;;;35.25;19.67;;;3.80;99.90;;;;;;5015771;28;20041;-71
2022/12/09 10:19:54;;;;;;;35.45;19.85;;;3.90;99.90;;;;;;4994481;28;20049;-71
2022/12/09 10:22:25;;;;;;;38.38;20.80;;;3.90;99.90;;;;;;5013049;28;20061;-71
2022/12/09 10:24:56;;;;;;;30.00;18.83;;;3.90;99.90;;;;;;5028694;28;20589;-71
2022/12/09 10:27:34;;;;;;;34.53;19.55;;;3.80;99.90;;;;;;5029168;28;20049;-71
2022/12/09 10:30:09;;;;;;;35.83;19.42;;;3.90;99.90;;;;;;5029403;28;20126;-71
2022/12/09 10:32:38;;;;;;;34.67;18.20;;;4.00;99.90;;;;;;4994851;28;20041;-72
2022/12/09 10:35:12;;;;;;;30.20;18.00;;;4.00;99.90;;;;;;5012701;28;20096;-71
2022/12/09 10:37:40;;;;;;;29.92;17.15;;;4.20;99.90;;;;;;5009205;28;20508;-70
2022/12/09 10:40:11;;;;;;;26.55;16.80;;;4.40;99.90;;;;;;5007066;28;20077;-71
2022/12/09 10:45:55;;;;;;;29.02;15.80;;;4.70;99.90;;;;;;4995656;28;20424;-70
2022/12/09 10:48:45;;;;;;;25.60;15.35;;;4.70;99.90;;;;;;5028954;28;20053;-71
2022/12/09 10:51:27;;;;;;;27.25;15.20;;;4.70;99.90;;;;;;5014334;28;20212;-71
2022/12/09 10:54:18;;;;;;;26.33;15.40;;;4.70;99.90;;;;;;5012936;28;20056;-70
2022/12/09 10:57:03;;;;;;;;;;;4.60;99.90;;;;;;5028093;28;20136;-70
2022/12/09 10:59:32;;;;;;;25.65;14.23;;;4.60;99.90;;;;;;5010406;28;19925;-71
2022/12/09 11:02:01;;;;;;;27.55;15.25;;;4.50;99.90;;;;;;5031372;28;20045;-71
2022/12/09 11:04:35;;;;;;;23.35;14.38;;;4.50;99.90;;;;;;5030453;28;20404;-70
2022/12/09 11:07:15;;;;;;;22.25;13.55;;;4.60;99.90;;;;;;5005808;28;20411;-70
2022/12/09 11:09:57;;;;;;;22.95;12.95;;;4.70;99.90;;;;;;5022202;28;20515;-71
2022/12/09 11:12:25;;;;;;;23.08;13.73;;;4.80;99.90;;;;;;5024135;28;20564;-71
2022/12/09 11:15:05;;;;;;;23.80;13.65;;;4.80;99.90;;;;;;5025235;28;20126;-71
2022/12/09 11:17:38;;;;;;;20.35;12.93;;;4.90;99.90;;;;;;5024708;28;20124;-71
2022/12/09 11:20:27;;;;;;;17.13;11.27;;;4.90;99.90;;;;;;5030761;28;20044;-70
2022/12/09 11:23:12;;;;;;;19.63;11.63;;;4.90;99.90;;;;;;5018944;28;20113;-73
2022/12/09 11:25:58;;;;;;;22.73;12.90;;;5.00;99.90;;;;;;5009931;28;20503;-72
2022/12/09 11:28:28;;;;;;;19.92;12.35;;;5.00;99.90;;;;;;5025187;28;20045;-72
2022/12/09 11:30:59;;;;;;;20.33;10.80;;;5.10;99.90;;;;;;5029539;28;20045;-72
2022/12/09 11:33:52;;;;;;;18.73;11.60;;;5.20;99.90;;;;;;5014843;28;20033;-73
2022/12/09 11:36:26;;;;;;;19.73;11.60;;;5.10;99.90;;;;;;5024429;28;20034;-73
2022/12/09 11:39:17;;;;;;;18.73;10.98;;;5.20;99.90;;;;;;5030551;28;20099;-72
2022/12/09 11:44:47;;;;;;;17.80;11.55;;;5.70;99.90;;;;;;5029386;28;20462;-72
2022/12/09 11:47:32;;;;;;;17.65;11.02;;;5.70;99.90;;;;;;5023149;28;20045;-72
2022/12/09 11:50:30;;;;;;;16.13;10.73;;;5.80;99.90;;;;;;5020006;28;20048;-72
2022/12/09 11:53:10;;;;;;;20.88;12.13;;;5.60;99.90;;;;;;5025959;28;20285;-72
2022/12/09 11:55:50;;;;;;;18.60;10.75;;;5.70;99.90;;;;;;5023588;28;20061;-70
2022/12/09 11:58:44;;;;;;;21.95;13.75;;;5.90;99.90;;;;;;5026471;28;20151;-71
2022/12/09 12:01:23;;;;;;;17.80;12.77;;;6.20;99.90;;;;;;5023854;28;20416;-70
2022/12/09 12:04:06;;;;;;;21.23;13.65;;;6.80;99.90;;;;;;5030601;28;20045;-71
2022/12/09 12:06:44;;;;;;;16.85;10.57;;;7.10;99.90;;;;;;5023167;28;20364;-70
2022/12/09 12:09:22;;;;;;;15.80;10.18;;;7.10;99.90;;;;;;5024296;28;20123;-70
2022/12/09 12:12:27;;;;;;;16.60;10.45;;;7.00;99.90;;;;;;5028689;28;20087;-70
2022/12/09 12:15:00;;;;;;;16.45;10.35;;;7.30;99.90;;;;;;5029087;28;20061;-70
2022/12/09 12:17:36;;;;;;;17.05;10.93;;;7.30;99.90;;;;;;5026225;28;20095;-70
2022/12/09 12:20:04;;;;;;;14.50;9.90;;;7.10;99.90;;;;;;5011342;28;20086;-71
2022/12/09 12:22:51;;;;;;;15.63;10.52;;;7.10;99.90;;;;;;5029037;28;20053;-72
2022/12/09 12:25:25;;;;;;;13.75;8.85;;;6.90;99.90;;;;;;5011728;28;20041;-73
2022/12/09 12:28:21;;;;;;;18.27;9.77;;;6.70;99.90;;;;;;5019335;28;20050;-71
2022/12/09 12:30:55;;;;;;;16.35;10.90;;;6.50;99.90;;;;;;5016385;28;20049;-71
2022/12/09 12:33:36;;;;;;;14.63;11.55;;;6.20;99.90;;;;;;5029291;28;20046;-72
2022/12/09 12:36:38;;;;;;;15.55;10.57;;;6.00;99.90;;;;;;5022307;28;20042;-72
2022/12/09 12:39:28;;;;;;;15.52;11.07;;;5.90;99.90;;;;;;5013568;28;20048;-72
2022/12/09 12:42:20;;;;;;;14.85;10.57;;;5.90;99.90;;;;;;5026877;28;20132;-70
2022/12/09 12:48:25;;;;;;;12.57;9.13;;;5.90;99.90;;;;;;5012747;28;20377;-71
2022/12/09 12:51:18;;;;;;;16.50;10.07;;;5.80;99.90;;;;;;5008938;28;20045;-69
2022/12/09 12:54:03;;;;;;;12.77;10.02;;;5.60;99.90;;;;;;5010827;28;20046;-70
2022/12/09 12:56:42;;;;;;;14.63;9.75;;;5.50;99.90;;;;;;5030330;28;20037;-71
2022/12/09 12:59:36;;;;;;;13.60;9.68;;;5.50;99.90;;;;;;5032997;28;20037;-71
2022/12/09 13:02:32;;;;;;;13.45;9.38;;;5.70;99.90;;;;;;5000994;28;20050;-70
2022/12/09 13:05:11;;;;;;;13.30;9.23;;;6.00;99.90;;;;;;5031825;28;20060;-70
2022/12/09 13:07:41;;;;;;;14.90;11.20;;;6.70;99.90;;;;;;4997682;28;20046;-71
2022/12/09 13:10:22;;;;;;;15.50;10.52;;;7.60;99.90;;;;;;5033736;28;20067;-71
2022/12/09 13:12:52;;;;;;;13.15;10.30;;;7.90;99.90;;;;;;5013628;28;20128;-70
2022/12/09 13:15:25;;;;;;;12.25;8.70;;;8.10;99.90;;;;;;5030761;28;20400;-70
2022/12/09 13:17:53;;;;;;;15.23;8.90;;;7.70;99.90;;;;;;5032536;28;20384;-69